• Join FlightAware (Why Join?)
  • Login
  • US Flag 
02:45PM EDT


 

Airport Tracker/Info


-or-


 

Live Flight TrackerFlight Track Log ✈ UPS2871 ✈ 08-May-2013 ✈ KABQ - KSDF

Flight Track Log - Related Links

Times and Time Zones

All times are in EDT time to prevent confusion due to time zone crossing. See the UPS2871 flight status page for this flight to view local times or setup timezone preferences in your user account.

Time Position Orientation Groundspeed Altitude Reporting Facility
EDT Latitude Longitude Course Direction KTS MPH feet Rate Location/Type
09:31AM 35.0600 -106.5940 North 179 206 7,000  Level FlightAware
09:32AM 35.0790 -106.5940 360° North 206 237 7,500 1,560 Climbing FlightAware
09:32AM 35.1110 -106.5960 357° North 252 290 8,300 1,740 Climbing FlightAware
09:33AM 35.1400 -106.5980 357° North 280 322 9,100 2,280 Climbing FlightAware
09:33AM 35.1930 -106.5990 359° North 313 360 10,800 2,400 Climbing FlightAware
09:34AM 35.2260 -106.5960 North 343 395 11,500 1,860 Climbing FlightAware
09:34AM 35.2910 -106.5730 16° North 389 448 12,700 1,740 Climbing FlightAware
09:35AM 35.3130 -106.5490 42° Northeast 408 470 13,100 2,460 Climbing FlightAware
09:35AM 35.3590 -106.4730 53° Northeast 426 490 15,000 2,760 Climbing FlightAware
09:36AM 35.3810 -106.3770 74° East 436 502 16,800 2,400 Climbing FlightAware
09:37AM 35.4040 -106.2740 75° East 455 524 18,400 2,220 Climbing FlightAware
09:37AM 35.4260 -106.1810 74° East 467 537 19,800 2,220 Climbing FlightAware
09:38AM 35.4470 -106.0850 75° East 477 549 21,200 1,920 Climbing FlightAware
09:39AM 35.4690 -105.9900 74° East 486 559 22,400 1,260 Climbing FlightAware
09:39AM 35.4950 -105.8690 75° East 490 564 23,000 360 Climbing FlightAware
09:40AM 35.5200 -105.7550 75° East 490 564 23,000  Level FlightAware
09:41AM 35.5400 -105.6630 75° East 490 564 23,000  Level FlightAware
09:41AM 35.5600 -105.5720 75° East 490 564 23,000  Level FlightAware
09:42AM 35.5800 -105.4800 75° East 490 564 23,000  Level FlightAware
09:43AM 35.6000 -105.3890 75° East 490 564 23,000 5,880 Level FlightAware
09:43AM 35.6606 -105.1300 75° East 539 620 30,900 5,820 Climbing Albuquerque Center
09:44AM 35.7189 -104.9586 67° East 535 616 32,800 1,020 Climbing Albuquerque Center
09:45AM 35.7814 -104.7881 66° East 538 619 33,000 60 Climbing Albuquerque Center
09:47AM 35.8406 -104.6183 67° East 535 616 33,000  Level Albuquerque Center
09:48AM 35.8994 -104.4506 67° East 529 609 33,000  Level Albuquerque Center
09:49AM 35.9583 -104.2811 67° East 529 609 33,000  Level Albuquerque Center
09:50AM 36.0167 -104.1131 67° East 528 608 33,000  Level Albuquerque Center
09:51AM 36.0750 -103.9461 67° East 524 603 33,000  Level Albuquerque Center
09:52AM 36.1322 -103.7775 67° East 525 604 33,000  Level Albuquerque Center
09:53AM 36.1897 -103.6153 66° East 515 593 33,000  Level Albuquerque Center
09:54AM 36.2456 -103.4483 67° East 517 595 33,000  Level Albuquerque Center
09:55AM 36.3006 -103.2817 68° East 518 596 33,000  Level Albuquerque Center
09:56AM 36.3556 -103.1133 68° East 520 598 33,000  Level Albuquerque Center
09:57AM 36.4125 -102.9464 67° East 519 597 33,000  Level Albuquerque Center
09:58AM 36.4667 -102.7806 68° East 520 598 33,000  Level Albuquerque Center
09:59AM 36.5217 -102.6136 68° East 520 598 33,000  Level Albuquerque Center
10:00AM 36.5872 -102.4144 68° East 519 597 33,000  Level Albuquerque Center
10:01AM 36.6414 -102.2475 68° East 521 600 33,000  Level Albuquerque Center
10:02AM 36.6947 -102.0792 68° East 519 597 33,000  Level Albuquerque Center
10:03AM 36.7458 -101.9206 68° East 517 595 33,000  Level Albuquerque Center
10:04AM 36.8044 -101.7361 68° East 515 593 33,000  Level Albuquerque Center
10:05AM 36.8550 -101.5772 68° East 515 593 33,000  Level Albuquerque Center
10:06AM 36.9053 -101.4186 68° East 514 592 33,000  Level Albuquerque Center
10:07AM 36.9717 -101.2058 69° East 516 594 33,000  Level Kansas City Center
10:08AM 37.0283 -101.0214 69° East 513 590 33,000  Level Kansas City Center
10:09AM 37.0708 -100.8617 72° East 510 587 33,000  Level Kansas City Center
10:10AM 37.1114 -100.6722 75° East 509 586 33,000  Level Kansas City Center
10:11AM 37.1469 -100.5089 75° East 510 587 33,000  Level Kansas City Center
10:12AM 37.1883 -100.3194 75° East 508 585 33,000  Level Kansas City Center
10:13AM 37.2239 -100.1597 74° East 503 579 33,000  Level Kansas City Center
10:14AM 37.2636 -99.9733 75° East 499 574 33,000  Level Kansas City Center
10:15AM 37.2964 -99.8139 75° East 497 572 33,000  Level Kansas City Center
10:16AM 37.3303 -99.6536 75° East 496 571 33,000  Level Kansas City Center
10:17AM 37.3686 -99.4692 75° East 491 565 33,000  Level Kansas City Center
10:19AM 37.4078 -99.2947 74° East 495 570 33,000  Level Kansas City Center
10:20AM 37.4422 -99.1225 76° East 495 570 33,000 240 Level Kansas City Center
10:26AM 37.6430 -98.1140 76° East 487 560 35,000 240 Climbing FlightAware
10:27AM 37.6730 -97.9620 76° East 488 562 35,000  Level FlightAware
10:27AM 37.6950 -97.8460 76° East 486 559 35,000  Level FlightAware
10:28AM 37.7180 -97.7280 76° East 486 559 35,000  Level FlightAware
10:29AM 37.7390 -97.6150 77° East 484 557 35,000  Level FlightAware
10:29AM 37.7620 -97.4940 76° East 486 559 35,000  Level FlightAware
10:30AM 37.7820 -97.3870 77° East 481 554 35,000  Level FlightAware
10:31AM 37.8020 -97.2750 77° East 483 556 35,000  Level FlightAware
10:31AM 37.8240 -97.1540 77° East 489 563 35,000  Level FlightAware
10:32AM 37.8450 -97.0360 77° East 495 570 35,000  Level FlightAware
10:33AM 37.8670 -96.9100 77° East 492 566 35,000  Level FlightAware
10:33AM 37.8840 -96.8180 77° East 490 564 35,000  Level FlightAware
10:34AM 37.9090 -96.6750 77° East 490 564 35,000  Level FlightAware
10:35AM 37.9230 -96.5970 77° East 493 567 35,000  Level FlightAware
10:36AM 37.9490 -96.4500 77° East 500 575 35,000  Level FlightAware
10:37AM 37.9820 -96.2550 78° East 503 579 35,000  Level FlightAware
10:37AM 38.0000 -96.1560 77° East 503 579 35,000  Level FlightAware
10:38AM 38.0180 -96.0580 77° East 503 579 35,000  Level FlightAware
10:39AM 38.0400 -95.9360 77° East 503 579 35,000  Level FlightAware
10:40AM 38.0580 -95.8380 77° East 503 579 35,000  Level FlightAware
10:40AM 38.0760 -95.7400 77° East 503 579 35,000  Level FlightAware
10:41AM 38.0940 -95.6420 77° East 503 579 35,000  Level FlightAware
10:42AM 38.1160 -95.5200 77° East 503 579 35,000  Level FlightAware
10:42AM 38.1450 -95.2850 81° East 494 568 35,000  Level FlightAware
10:43AM 38.1620 -95.1810 78° East 493 567 35,000  Level FlightAware
10:44AM 38.1890 -95.0130 78° East 487 560 35,000  Level FlightAware
10:45AM 38.2100 -94.8790 79° East 498 573 35,000  Level FlightAware
10:45AM 38.2290 -94.7610 78° East 498 573 35,000  Level FlightAware
10:46AM 38.2490 -94.6320 79° East 498 573 35,000  Level FlightAware
10:47AM 38.2670 -94.5170 79° East 498 573 35,000  Level FlightAware
10:48AM 38.2770 -94.4000 84° East 502 578 35,000  Level FlightAware
10:48AM 38.2830 -94.2700 87° East 499 574 35,000  Level FlightAware
10:49AM 38.2880 -94.1540 87° East 496 571 35,000  Level FlightAware
10:50AM 38.2940 -94.0220 87° East 497 572 35,000  Level FlightAware
10:50AM 38.3000 -93.9050 86° East 500 575 35,000  Level FlightAware
10:51AM 38.3050 -93.7850 87° East 501 577 35,000  Level FlightAware
10:52AM 38.3110 -93.6580 87° East 502 578 35,000  Level FlightAware
10:52AM 38.3150 -93.5570 87° East 501 577 35,000  Level FlightAware
10:53AM 38.3210 -93.4280 87° East 501 577 35,000  Level FlightAware
10:54AM 38.3250 -93.3190 87° East 499 574 35,000  Level FlightAware
10:55AM 38.3310 -93.1690 87° East 502 578 35,000  Level FlightAware
10:55AM 38.3360 -93.0380 87° East 507 583 35,000  Level FlightAware
10:56AM 38.3410 -92.9160 87° East 508 585 35,000  Level FlightAware
10:57AM 38.3450 -92.8020 87° East 507 583 35,000  Level FlightAware
10:57AM 38.3500 -92.6770 87° East 507 583 35,000  Level FlightAware
10:58AM 38.3540 -92.5600 87° East 507 583 35,000  Level FlightAware
10:59AM 38.3580 -92.4590 87° East 507 583 35,000  Level FlightAware
10:59AM 38.3630 -92.3570 86° East 507 583 35,000  Level FlightAware
11:00AM 38.3680 -92.2300 87° East 507 583 35,000  Level FlightAware
11:01AM 38.3720 -92.1280 87° East 507 583 35,000  Level FlightAware
11:02AM 38.3760 -92.0270 87° East 507 583 35,000  Level FlightAware
11:02AM 38.3800 -91.9250 87° East 507 583 35,000  Level FlightAware
11:03AM 38.3850 -91.8240 86° East 507 583 35,000  Level FlightAware
11:04AM 38.3900 -91.6970 87° East 507 583 35,000  Level FlightAware
11:04AM 38.3940 -91.5950 87° East 507 583 35,000  Level FlightAware
11:05AM 38.3980 -91.4930 87° East 507 583 35,000  Level FlightAware
11:06AM 38.4020 -91.3920 87° East 507 583 35,000  Level FlightAware
11:06AM 38.4060 -91.2900 87° East 507 583 35,000  Level FlightAware
11:07AM 38.4120 -91.1630 87° East 507 583 35,000  Level FlightAware
11:08AM 38.4010 -90.7700 92° East 499 574 35,000  Level FlightAware
11:09AM 38.4040 -90.6570 88° East 496 571 35,000  Level FlightAware
11:10AM 38.4060 -90.5010 89° East 488 562 35,000  Level FlightAware
11:10AM 38.4080 -90.3860 89° East 484 557 35,000  Level FlightAware
11:11AM 38.4100 -90.2650 89° East 480 552 35,000  Level FlightAware
11:12AM 38.4110 -90.1450 89° East 485 558 35,000  Level FlightAware
11:12AM 38.4130 -90.0440 89° East 486 559 35,000  Level FlightAware
11:13AM 38.4140 -89.9470 89° East 486 559 35,000  Level FlightAware
11:14AM 38.4150 -89.8160 89° East 474 545 35,000  Level FlightAware
11:14AM 38.4170 -89.6820 89° East 472 543 35,000  Level FlightAware
11:15AM 38.4180 -89.5600 89° East 474 545 35,000  Level FlightAware
11:16AM 38.4190 -89.4540 89° East 475 547 35,000  Level FlightAware
11:17AM 38.4200 -89.3190 89° East 477 549 35,000  Level FlightAware
11:17AM 38.4200 -89.2100 90° East 474 545 35,000  Level FlightAware
11:18AM 38.4190 -89.1010 91° East 474 545 35,000  Level FlightAware
11:19AM 38.4130 -88.9750 93° East 480 552 35,000  Level FlightAware
11:19AM 38.4080 -88.8640 93° East 481 554 35,000 -420 Level FlightAware
11:20AM 38.4010 -88.7010 93° East 477 549 34,400 -1,140 Descending FlightAware
11:21AM 38.3950 -88.5750 93° East 473 544 33,100 -1,980 Descending FlightAware
11:22AM 38.3900 -88.4600 93° East 483 556 31,600 -2,220 Descending FlightAware
11:22AM 38.3850 -88.3520 93° East 485 558 30,200 -2,160 Descending FlightAware
11:23AM 38.3790 -88.2230 93° East 484 557 28,600 -1,860 Descending FlightAware
11:24AM 38.3730 -88.1060 94° East 488 562 27,600 -1,320 Descending FlightAware
11:24AM 38.3670 -87.9810 93° East 482 555 26,800 -1,080 Descending FlightAware
11:25AM 38.3610 -87.8650 94° East 480 552 26,100 -1,440 Descending FlightAware
11:26AM 38.3540 -87.7410 94° East 477 549 24,800 -1,860 Descending FlightAware
11:27AM 38.3480 -87.6270 94° East 467 537 23,500 -1,980 Descending FlightAware
11:27AM 38.3420 -87.5190 94° East 457 526 22,200 -1,980 Descending FlightAware
11:28AM 38.3360 -87.4030 94° East 443 510 20,700 -1,980 Descending FlightAware
11:29AM 38.3300 -87.3000 94° East 436 502 19,400 -1,920 Descending FlightAware
11:29AM 38.3180 -87.1940 98° East 431 496 18,200 -1,800 Descending FlightAware
11:30AM 38.3040 -87.0870 99° East 417 480 16,900 -1,800 Descending FlightAware
11:31AM 38.2920 -86.9890 99° East 410 472 15,700 -1,320 Descending FlightAware
11:32AM 38.2780 -86.8800 99° East 405 466 15,000 -1,740 Descending FlightAware
11:32AM 38.2620 -86.7570 99° East 388 447 12,800 -1,560 Descending FlightAware
11:33AM 38.2530 -86.6880 99° East 388 447 12,800 -1,560 Level FlightAware
11:34AM 38.2380 -86.5710 99° East 359 413 10,600 -1,560 Descending FlightAware
11:34AM 38.2280 -86.4990 100° East 314 361 10,500 -540 Descending FlightAware
11:35AM 38.2200 -86.4410 100° East 292 336 10,000 -600 Descending FlightAware
11:35AM 38.2160 -86.4040 98° East 292 336 10,000  Level FlightAware
11:36AM 38.2120 -86.3750 100° East 292 336 10,000 -600 Level FlightAware
11:36AM 38.2020 -86.2980 99° East 293 337 9,400 -1,080 Descending FlightAware
11:37AM 38.1920 -86.2310 101° East 287 330 8,600 -1,320 Descending FlightAware
11:37AM 38.1880 -86.2040 101° East 284 327 8,200 -1,380 Descending FlightAware
11:38AM 38.1840 -86.1680 98° East 278 320 7,700 -1,440 Descending FlightAware
11:38AM 38.1740 -86.1190 105° East 281 323 6,900 -1,800 Descending FlightAware
11:39AM 38.1570 -86.0800 119° Southeast 281 323 6,100 -1,680 Descending FlightAware
11:39AM 38.1370 -86.0350 119° Southeast 278 320 5,400 -1,500 Descending FlightAware
11:40AM 38.1190 -85.9940 119° Southeast 270 311 4,600 -1,320 Descending FlightAware
11:40AM 38.1010 -85.9520 119° Southeast 252 290 4,100 -780 Descending FlightAware
11:41AM 38.0880 -85.9240 121° Southeast 238 274 3,900 -360 Descending FlightAware
11:41AM 38.0720 -85.8870 119° Southeast 232 267 3,800 -660 Descending FlightAware
11:41AM 38.0620 -85.8550 112° Southeast 228 262 3,300 -960 Descending FlightAware
11:42AM 38.0620 -85.8260 90° East 217 250 3,000 -360 Descending FlightAware
11:42AM 38.0630 -85.7950 88° East 217 250 3,000 -780 Level FlightAware
11:43AM 38.0820 -85.7240 71° East 158 182 1,900 -1,080 Descending FlightAware
11:44AM 38.0880 -85.7200 28° Northeast 144 166 1,700 -900 Descending FlightAware
11:44AM 38.0940 -85.7190 North 134 154 1,600 -600 Descending FlightAware
11:44AM 38.1060 -85.7220 349° North 121 139 1,400 -600 Descending FlightAware
11:45AM 38.1230 -85.7280 344° North 125 144 1,100 -600 Descending FlightAware
11:45AM 38.1360 -85.7320 346° North 124 143 900 -600 Descending FlightAware
11:45AM 38.1450 -85.7350 345° North 126 145 700 -780 Descending FlightAware
11:46AM 38.1580 -85.7390 346° North 123 142 400 -360 Descending FlightAware
11:46AM 38.1710 -85.7440 343° North 123 142 400  Level FlightAware